sensor_id;sensor_type;location;lat;lon;timestamp;temperature;humidity
7196;DHT22;3639;51.308;5.624;2023-02-15T00:01:30;2.00;99.90
7196;DHT22;3639;51.308;5.624;2023-02-15T00:03:56;1.90;99.90
7196;DHT22;3639;51.308;5.624;2023-02-15T00:06:22;1.90;99.90
7196;DHT22;3639;51.308;5.624;2023-02-15T00:08:48;1.90;99.90
7196;DHT22;3639;51.308;5.624;2023-02-15T00:11:15;1.90;99.90
7196;DHT22;3639;51.308;5.624;2023-02-15T00:13:42;1.90;99.90
7196;DHT22;3639;51.308;5.624;2023-02-15T00:16:12;1.90;99.90
7196;DHT22;3639;51.308;5.624;2023-02-15T00:18:39;1.80;99.90
7196;DHT22;3639;51.308;5.624;2023-02-15T00:21:07;1.80;99.90
7196;DHT22;3639;51.308;5.624;2023-02-15T00:23:33;1.80;99.90
7196;DHT22;3639;51.308;5.624;2023-02-15T00:26:12;1.80;99.90
7196;DHT22;3639;51.308;5.624;2023-02-15T00:28:38;1.80;99.90
7196;DHT22;3639;51.308;5.624;2023-02-15T00:31:11;1.70;99.90
7196;DHT22;3639;51.308;5.624;2023-02-15T00:33:37;1.70;99.90
7196;DHT22;3639;51.308;5.624;2023-02-15T00:36:05;1.80;99.90
7196;DHT22;3639;51.308;5.624;2023-02-15T00:38:31;1.80;99.90
7196;DHT22;3639;51.308;5.624;2023-02-15T00:40:59;1.80;99.90
7196;DHT22;3639;51.308;5.624;2023-02-15T00:43:26;1.70;99.90
7196;DHT22;3639;51.308;5.624;2023-02-15T00:45:52;1.70;99.90
7196;DHT22;3639;51.308;5.624;2023-02-15T00:48:18;1.70;99.90
7196;DHT22;3639;51.308;5.624;2023-02-15T00:50:45;1.70;99.90
7196;DHT22;3639;51.308;5.624;2023-02-15T00:53:12;1.60;99.90
7196;DHT22;3639;51.308;5.624;2023-02-15T00:55:38;1.60;99.90
7196;DHT22;3639;51.308;5.624;2023-02-15T00:58:06;1.60;99.90
7196;DHT22;3639;51.308;5.624;2023-02-15T01:00:31;1.50;99.90
7196;DHT22;3639;51.308;5.624;2023-02-15T01:02:57;1.60;99.90
7196;DHT22;3639;51.308;5.624;2023-02-15T01:05:23;1.50;99.90
7196;DHT22;3639;51.308;5.624;2023-02-15T01:07:48;1.50;99.90
7196;DHT22;3639;51.308;5.624;2023-02-15T01:10:14;1.50;99.90
7196;DHT22;3639;51.308;5.624;2023-02-15T01:12:40;1.50;99.90
7196;DHT22;3639;51.308;5.624;2023-02-15T01:15:05;1.50;99.90
7196;DHT22;3639;51.308;5.624;2023-02-15T01:17:31;1.50;99.90
7196;DHT22;3639;51.308;5.624;2023-02-15T01:19:57;1.40;99.90
7196;DHT22;3639;51.308;5.624;2023-02-15T01:22:23;1.40;99.90
7196;DHT22;3639;51.308;5.624;2023-02-15T01:24:51;1.40;99.90
7196;DHT22;3639;51.308;5.624;2023-02-15T01:27:17;1.40;99.90
7196;DHT22;3639;51.308;5.624;2023-02-15T01:29:43;1.40;99.90
7196;DHT22;3639;51.308;5.624;2023-02-15T01:32:09;1.30;99.90
7196;DHT22;3639;51.308;5.624;2023-02-15T01:34:35;1.30;99.90
7196;DHT22;3639;51.308;5.624;2023-02-15T01:37:00;1.20;99.90
7196;DHT22;3639;51.308;5.624;2023-02-15T01:39:26;1.20;99.90
7196;DHT22;3639;51.308;5.624;2023-02-15T01:41:52;1.20;99.90
7196;DHT22;3639;51.308;5.624;2023-02-15T01:47:13;1.10;99.90
7196;DHT22;3639;51.308;5.624;2023-02-15T01:49:41;1.10;99.90
7196;DHT22;3639;51.308;5.624;2023-02-15T01:52:08;1.10;99.90
7196;DHT22;3639;51.308;5.624;2023-02-15T01:54:36;1.10;99.90
7196;DHT22;3639;51.308;5.624;2023-02-15T01:57:05;1.00;99.90
7196;DHT22;3639;51.308;5.624;2023-02-15T01:59:34;1.00;99.90
7196;DHT22;3639;51.308;5.624;2023-02-15T02:02:02;1.00;99.90
7196;DHT22;3639;51.308;5.624;2023-02-15T02:06:59;0.90;99.90
7196;DHT22;3639;51.308;5.624;2023-02-15T02:09:25;1.00;99.90
7196;DHT22;3639;51.308;5.624;2023-02-15T02:11:51;1.00;99.90
7196;DHT22;3639;51.308;5.624;2023-02-15T02:14:19;0.90;99.90
7196;DHT22;3639;51.308;5.624;2023-02-15T02:34:29;0.90;99.90
7196;DHT22;3639;51.308;5.624;2023-02-15T02:39:40;0.80;99.90
7196;DHT22;3639;51.308;5.624;2023-02-15T02:42:39;0.80;99.90
7196;DHT22;3639;51.308;5.624;2023-02-15T02:47:41;0.80;99.90
7196;DHT22;3639;51.308;5.624;2023-02-15T02:50:13;0.80;99.90
7196;DHT22;3639;51.308;5.624;2023-02-15T02:52:41;0.80;99.90
7196;DHT22;3639;51.308;5.624;2023-02-15T03:00:42;0.70;99.90
7196;DHT22;3639;51.308;5.624;2023-02-15T03:03:14;0.60;99.90
7196;DHT22;3639;51.308;5.624;2023-02-15T03:05:44;0.60;99.90
7196;DHT22;3639;51.308;5.624;2023-02-15T03:08:14;0.60;99.90
7196;DHT22;3639;51.308;5.624;2023-02-15T03:10:54;0.60;99.90
7196;DHT22;3639;51.308;5.624;2023-02-15T03:13:21;0.60;99.90
7196;DHT22;3639;51.308;5.624;2023-02-15T03:15:48;0.50;99.90
7196;DHT22;3639;51.308;5.624;2023-02-15T03:18:37;0.60;99.90
7196;DHT22;3639;51.308;5.624;2023-02-15T03:21:04;0.60;99.90
7196;DHT22;3639;51.308;5.624;2023-02-15T03:23:32;0.60;99.90
7196;DHT22;3639;51.308;5.624;2023-02-15T03:26:05;0.50;99.90
7196;DHT22;3639;51.308;5.624;2023-02-15T03:28:43;0.50;99.90
7196;DHT22;3639;51.308;5.624;2023-02-15T03:31:13;0.50;99.90
7196;DHT22;3639;51.308;5.624;2023-02-15T03:34:03;0.50;99.90
7196;DHT22;3639;51.308;5.624;2023-02-15T03:36:55;0.50;99.90
7196;DHT22;3639;51.308;5.624;2023-02-15T03:39:32;0.40;99.90
7196;DHT22;3639;51.308;5.624;2023-02-15T03:42:13;0.40;99.90
7196;DHT22;3639;51.308;5.624;2023-02-15T03:47:16;0.40;99.90
7196;DHT22;3639;51.308;5.624;2023-02-15T03:50:05;0.40;99.90
7196;DHT22;3639;51.308;5.624;2023-02-15T03:52:52;0.40;99.90
7196;DHT22;3639;51.308;5.624;2023-02-15T03:55:18;0.40;99.90
7196;DHT22;3639;51.308;5.624;2023-02-15T03:57:44;0.30;99.90
7196;DHT22;3639;51.308;5.624;2023-02-15T04:00:28;0.40;99.90
7196;DHT22;3639;51.308;5.624;2023-02-15T04:03:27;0.30;99.90
7196;DHT22;3639;51.308;5.624;2023-02-15T04:05:54;0.40;99.90
7196;DHT22;3639;51.308;5.624;2023-02-15T04:08:20;0.30;99.90
7196;DHT22;3639;51.308;5.624;2023-02-15T04:11:06;0.30;99.90
7196;DHT22;3639;51.308;5.624;2023-02-15T04:13:32;0.30;99.90
7196;DHT22;3639;51.308;5.624;2023-02-15T04:15:58;0.30;99.90
7196;DHT22;3639;51.308;5.624;2023-02-15T04:18:31;0.30;99.90
7196;DHT22;3639;51.308;5.624;2023-02-15T04:21:16;0.30;99.90
7196;DHT22;3639;51.308;5.624;2023-02-15T04:24:00;0.30;99.90
7196;DHT22;3639;51.308;5.624;2023-02-15T04:26:44;0.30;99.90
7196;DHT22;3639;51.308;5.624;2023-02-15T04:29:11;0.30;99.90
7196;DHT22;3639;51.308;5.624;2023-02-15T04:31:36;0.30;99.90
7196;DHT22;3639;51.308;5.624;2023-02-15T04:34:02;0.30;99.90
7196;DHT22;3639;51.308;5.624;2023-02-15T04:36:28;0.30;99.90
7196;DHT22;3639;51.308;5.624;2023-02-15T04:38:53;0.30;99.90
7196;DHT22;3639;51.308;5.624;2023-02-15T04:41:19;0.20;99.90
7196;DHT22;3639;51.308;5.624;2023-02-15T04:43:44;0.20;99.90
7196;DHT22;3639;51.308;5.624;2023-02-15T04:46:10;0.20;99.90
7196;DHT22;3639;51.308;5.624;2023-02-15T04:48:36;0.20;99.90
7196;DHT22;3639;51.308;5.624;2023-02-15T04:51:06;0.20;99.90
7196;DHT22;3639;51.308;5.624;2023-02-15T04:53:32;0.20;99.90
7196;DHT22;3639;51.308;5.624;2023-02-15T04:55:58;0.10;99.90
7196;DHT22;3639;51.308;5.624;2023-02-15T04:58:23;0.20;99.90
7196;DHT22;3639;51.308;5.624;2023-02-15T05:00:49;0.10;99.90
7196;DHT22;3639;51.308;5.624;2023-02-15T05:03:14;0.10;99.90
7196;DHT22;3639;51.308;5.624;2023-02-15T05:05:40;0.10;99.90
7196;DHT22;3639;51.308;5.624;2023-02-15T05:08:06;0.10;99.90
7196;DHT22;3639;51.308;5.624;2023-02-15T05:10:31;0.10;99.90
7196;DHT22;3639;51.308;5.624;2023-02-15T05:12:57;0.10;99.90
7196;DHT22;3639;51.308;5.624;2023-02-15T05:15:22;0.10;99.90
7196;DHT22;3639;51.308;5.624;2023-02-15T05:17:48;0.00;99.90
7196;DHT22;3639;51.308;5.624;2023-02-15T05:20:15;0.00;99.90
7196;DHT22;3639;51.308;5.624;2023-02-15T05:22:40;0.00;99.90
7196;DHT22;3639;51.308;5.624;2023-02-15T05:25:07;0.00;99.90
7196;DHT22;3639;51.308;5.624;2023-02-15T05:27:51;0.00;99.90
7196;DHT22;3639;51.308;5.624;2023-02-15T05:30:37;0.00;99.90
7196;DHT22;3639;51.308;5.624;2023-02-15T05:33:05;-0.10;99.90
7196;DHT22;3639;51.308;5.624;2023-02-15T05:35:31;0.00;99.90
7196;DHT22;3639;51.308;5.624;2023-02-15T05:37:57;-0.10;99.90
7196;DHT22;3639;51.308;5.624;2023-02-15T05:40:23;-0.10;99.90
7196;DHT22;3639;51.308;5.624;2023-02-15T05:42:48;-0.10;99.90
7196;DHT22;3639;51.308;5.624;2023-02-15T05:45:14;-0.20;99.90
7196;DHT22;3639;51.308;5.624;2023-02-15T05:47:41;-0.20;99.90
7196;DHT22;3639;51.308;5.624;2023-02-15T05:50:07;-0.10;99.90
7196;DHT22;3639;51.308;5.624;2023-02-15T05:52:34;-0.20;99.90
7196;DHT22;3639;51.308;5.624;2023-02-15T05:54:59;-0.20;99.90
7196;DHT22;3639;51.308;5.624;2023-02-15T05:57:26;-0.20;99.90
7196;DHT22;3639;51.308;5.624;2023-02-15T05:59:52;-0.20;99.90
7196;DHT22;3639;51.308;5.624;2023-02-15T06:02:17;-0.20;99.90
7196;DHT22;3639;51.308;5.624;2023-02-15T06:04:43;-0.20;99.90
7196;DHT22;3639;51.308;5.624;2023-02-15T06:07:09;-0.10;99.90
7196;DHT22;3639;51.308;5.624;2023-02-15T06:09:35;-0.10;99.90
7196;DHT22;3639;51.308;5.624;2023-02-15T06:12:00;-0.10;99.90
7196;DHT22;3639;51.308;5.624;2023-02-15T06:14:26;-0.10;99.90
7196;DHT22;3639;51.308;5.624;2023-02-15T06:16:52;-0.10;99.90
7196;DHT22;3639;51.308;5.624;2023-02-15T06:19:17;-0.10;99.90
7196;DHT22;3639;51.308;5.624;2023-02-15T06:21:43;-0.10;99.90
7196;DHT22;3639;51.308;5.624;2023-02-15T06:24:09;-0.10;99.90
7196;DHT22;3639;51.308;5.624;2023-02-15T06:26:34;-0.10;99.90
7196;DHT22;3639;51.308;5.624;2023-02-15T06:29:00;-0.10;99.90
7196;DHT22;3639;51.308;5.624;2023-02-15T06:31:26;0.00;99.90
7196;DHT22;3639;51.308;5.624;2023-02-15T06:33:52;0.00;99.90
7196;DHT22;3639;51.308;5.624;2023-02-15T06:36:18;-0.10;99.90
7196;DHT22;3639;51.308;5.624;2023-02-15T06:38:43;0.00;99.90
7196;DHT22;3639;51.308;5.624;2023-02-15T06:41:09;0.00;99.90
7196;DHT22;3639;51.308;5.624;2023-02-15T06:43:34;-0.10;99.90
7196;DHT22;3639;51.308;5.624;2023-02-15T06:46:00;-0.10;99.90
7196;DHT22;3639;51.308;5.624;2023-02-15T06:48:26;-0.10;99.90
7196;DHT22;3639;51.308;5.624;2023-02-15T06:50:52;-0.10;99.90
7196;DHT22;3639;51.308;5.624;2023-02-15T06:53:17;-0.10;99.90
7196;DHT22;3639;51.308;5.624;2023-02-15T06:55:43;-0.10;99.90
7196;DHT22;3639;51.308;5.624;2023-02-15T06:58:08;-0.10;99.90
7196;DHT22;3639;51.308;5.624;2023-02-15T07:00:34;-0.10;99.90
7196;DHT22;3639;51.308;5.624;2023-02-15T07:03:00;-0.10;99.90
7196;DHT22;3639;51.308;5.624;2023-02-15T07:05:27;-0.10;99.90
7196;DHT22;3639;51.308;5.624;2023-02-15T07:07:57;-0.10;99.90
7196;DHT22;3639;51.308;5.624;2023-02-15T07:10:23;-0.10;99.90
7196;DHT22;3639;51.308;5.624;2023-02-15T07:12:48;-0.10;99.90
7196;DHT22;3639;51.308;5.624;2023-02-15T07:15:16;-0.10;99.90
7196;DHT22;3639;51.308;5.624;2023-02-15T07:17:43;0.00;99.90
7196;DHT22;3639;51.308;5.624;2023-02-15T07:20:16;0.00;99.90
7196;DHT22;3639;51.308;5.624;2023-02-15T07:22:42;0.00;99.90
7196;DHT22;3639;51.308;5.624;2023-02-15T07:25:09;0.00;99.90
7196;DHT22;3639;51.308;5.624;2023-02-15T07:27:37;0.10;99.90
7196;DHT22;3639;51.308;5.624;2023-02-15T07:30:03;0.10;99.90
7196;DHT22;3639;51.308;5.624;2023-02-15T07:32:31;0.10;99.90
7196;DHT22;3639;51.308;5.624;2023-02-15T07:34:58;0.20;99.90
7196;DHT22;3639;51.308;5.624;2023-02-15T07:37:24;0.20;99.90
7196;DHT22;3639;51.308;5.624;2023-02-15T07:39:50;0.30;99.90
7196;DHT22;3639;51.308;5.624;2023-02-15T07:42:15;0.30;99.90
7196;DHT22;3639;51.308;5.624;2023-02-15T07:44:41;0.40;99.90
7196;DHT22;3639;51.308;5.624;2023-02-15T07:47:07;0.40;99.90
7196;DHT22;3639;51.308;5.624;2023-02-15T07:49:32;0.50;99.90
7196;DHT22;3639;51.308;5.624;2023-02-15T07:52:00;0.50;99.90
7196;DHT22;3639;51.308;5.624;2023-02-15T07:54:27;0.60;99.90
7196;DHT22;3639;51.308;5.624;2023-02-15T07:56:52;0.70;99.90
7196;DHT22;3639;51.308;5.624;2023-02-15T07:59:18;0.70;99.90
7196;DHT22;3639;51.308;5.624;2023-02-15T08:01:44;0.70;99.90
7196;DHT22;3639;51.308;5.624;2023-02-15T08:04:09;0.90;99.90
7196;DHT22;3639;51.308;5.624;2023-02-15T08:06:37;1.00;99.90
7196;DHT22;3639;51.308;5.624;2023-02-15T08:09:05;1.00;99.90
7196;DHT22;3639;51.308;5.624;2023-02-15T08:11:33;1.10;99.90
7196;DHT22;3639;51.308;5.624;2023-02-15T08:14:07;1.10;99.90
7196;DHT22;3639;51.308;5.624;2023-02-15T08:19:05;1.30;99.90
7196;DHT22;3639;51.308;5.624;2023-02-15T08:21:32;1.40;99.90
7196;DHT22;3639;51.308;5.624;2023-02-15T08:23:59;1.50;99.90
7196;DHT22;3639;51.308;5.624;2023-02-15T08:26:26;1.60;99.90
7196;DHT22;3639;51.308;5.624;2023-02-15T08:28:53;1.70;99.90
7196;DHT22;3639;51.308;5.624;2023-02-15T08:31:19;1.80;99.90
7196;DHT22;3639;51.308;5.624;2023-02-15T08:33:46;2.00;99.90
7196;DHT22;3639;51.308;5.624;2023-02-15T08:36:20;2.10;99.90
7196;DHT22;3639;51.308;5.624;2023-02-15T08:38:46;2.20;99.90
7196;DHT22;3639;51.308;5.624;2023-02-15T08:41:21;2.40;99.90
7196;DHT22;3639;51.308;5.624;2023-02-15T08:43:49;2.50;99.90
7196;DHT22;3639;51.308;5.624;2023-02-15T08:46:17;2.70;99.90
7196;DHT22;3639;51.308;5.624;2023-02-15T08:48:43;2.80;99.90
7196;DHT22;3639;51.308;5.624;2023-02-15T08:51:12;2.90;99.90
7196;DHT22;3639;51.308;5.624;2023-02-15T08:53:39;3.10;99.90
7196;DHT22;3639;51.308;5.624;2023-02-15T08:56:06;3.20;99.90
7196;DHT22;3639;51.308;5.624;2023-02-15T08:58:32;3.30;99.90
7196;DHT22;3639;51.308;5.624;2023-02-15T09:00:57;3.50;99.90
7196;DHT22;3639;51.308;5.624;2023-02-15T09:03:23;3.60;99.90
7196;DHT22;3639;51.308;5.624;2023-02-15T09:05:49;3.70;99.90
7196;DHT22;3639;51.308;5.624;2023-02-15T09:08:15;3.80;99.90
7196;DHT22;3639;51.308;5.624;2023-02-15T09:10:40;3.90;99.90
7196;DHT22;3639;51.308;5.624;2023-02-15T09:13:06;4.00;99.90
7196;DHT22;3639;51.308;5.624;2023-02-15T09:15:32;4.10;99.90
7196;DHT22;3639;51.308;5.624;2023-02-15T09:17:58;4.10;99.90
7196;DHT22;3639;51.308;5.624;2023-02-15T09:20:31;4.20;99.90
7196;DHT22;3639;51.308;5.624;2023-02-15T09:22:57;4.30;99.90
7196;DHT22;3639;51.308;5.624;2023-02-15T09:25:22;4.30;99.90
7196;DHT22;3639;51.308;5.624;2023-02-15T09:27:48;4.40;99.90
7196;DHT22;3639;51.308;5.624;2023-02-15T09:30:14;4.50;99.90
7196;DHT22;3639;51.308;5.624;2023-02-15T09:32:40;4.70;99.90
7196;DHT22;3639;51.308;5.624;2023-02-15T09:35:06;4.80;99.90
7196;DHT22;3639;51.308;5.624;2023-02-15T09:37:31;4.90;99.90
7196;DHT22;3639;51.308;5.624;2023-02-15T09:39:57;5.10;99.90
7196;DHT22;3639;51.308;5.624;2023-02-15T09:46:08;5.40;99.90
7196;DHT22;3639;51.308;5.624;2023-02-15T09:48:39;5.50;99.90
7196;DHT22;3639;51.308;5.624;2023-02-15T09:56:38;5.80;99.90
7196;DHT22;3639;51.308;5.624;2023-02-15T09:59:19;6.00;99.90
7196;DHT22;3639;51.308;5.624;2023-02-15T10:07:40;6.40;99.90
7196;DHT22;3639;51.308;5.624;2023-02-15T10:10:32;6.60;99.90
7196;DHT22;3639;51.308;5.624;2023-02-15T10:16:40;6.90;99.90
7196;DHT22;3639;51.308;5.624;2023-02-15T10:27:18;7.70;99.90
7196;DHT22;3639;51.308;5.624;2023-02-15T10:32:37;8.00;99.90
7196;DHT22;3639;51.308;5.624;2023-02-15T10:35:46;8.10;99.90
7196;DHT22;3639;51.308;5.624;2023-02-15T10:38:40;8.20;99.90
7196;DHT22;3639;51.308;5.624;2023-02-15T11:00:27;9.40;99.90
7196;DHT22;3639;51.308;5.624;2023-02-15T11:05:52;9.70;99.90
7196;DHT22;3639;51.308;5.624;2023-02-15T11:08:21;9.70;99.90
7196;DHT22;3639;51.308;5.624;2023-02-15T11:10:56;9.80;99.90
7196;DHT22;3639;51.308;5.624;2023-02-15T11:13:26;9.90;99.90
7196;DHT22;3639;51.308;5.624;2023-02-15T11:16:13;10.00;99.90
7196;DHT22;3639;51.308;5.624;2023-02-15T11:18:48;10.00;99.90
7196;DHT22;3639;51.308;5.624;2023-02-15T11:21:30;10.00;99.90
7196;DHT22;3639;51.308;5.624;2023-02-15T11:23:59;10.10;99.90
7196;DHT22;3639;51.308;5.624;2023-02-15T11:26:39;10.20;99.90
7196;DHT22;3639;51.308;5.624;2023-02-15T11:29:28;10.40;99.90
7196;DHT22;3639;51.308;5.624;2023-02-15T11:32:23;10.60;99.90
7196;DHT22;3639;51.308;5.624;2023-02-15T11:38:06;10.90;99.90
7196;DHT22;3639;51.308;5.624;2023-02-15T11:40:44;11.00;99.90
7196;DHT22;3639;51.308;5.624;2023-02-15T11:43:28;11.20;99.90
7196;DHT22;3639;51.308;5.624;2023-02-15T11:45:56;11.20;99.90
7196;DHT22;3639;51.308;5.624;2023-02-15T11:48:22;11.20;99.90
7196;DHT22;3639;51.308;5.624;2023-02-15T11:50:48;11.30;99.90
7196;DHT22;3639;51.308;5.624;2023-02-15T11:53:17;11.50;99.90
7196;DHT22;3639;51.308;5.624;2023-02-15T11:55:45;11.60;99.90
7196;DHT22;3639;51.308;5.624;2023-02-15T12:00:47;11.70;99.90
7196;DHT22;3639;51.308;5.624;2023-02-15T12:03:22;11.70;99.90
7196;DHT22;3639;51.308;5.624;2023-02-15T12:05:57;11.60;99.90
7196;DHT22;3639;51.308;5.624;2023-02-15T12:08:37;11.60;99.90
7196;DHT22;3639;51.308;5.624;2023-02-15T12:11:15;11.60;99.90
7196;DHT22;3639;51.308;5.624;2023-02-15T12:14:03;11.70;99.90
7196;DHT22;3639;51.308;5.624;2023-02-15T12:16:55;11.80;99.90
7196;DHT22;3639;51.308;5.624;2023-02-15T12:19:38;11.90;99.70
7196;DHT22;3639;51.308;5.624;2023-02-15T12:22:27;12.00;99.50
7196;DHT22;3639;51.308;5.624;2023-02-15T12:24:56;12.10;99.20
7196;DHT22;3639;51.308;5.624;2023-02-15T12:27:34;12.10;99.80
7196;DHT22;3639;51.308;5.624;2023-02-15T12:30:06;12.10;99.30
7196;DHT22;3639;51.308;5.624;2023-02-15T12:32:48;12.30;98.20
7196;DHT22;3639;51.308;5.624;2023-02-15T12:35:29;12.30;98.20
7196;DHT22;3639;51.308;5.624;2023-02-15T12:40:34;12.40;97.40
7196;DHT22;3639;51.308;5.624;2023-02-15T12:43:01;12.40;97.30
7196;DHT22;3639;51.308;5.624;2023-02-15T12:45:35;12.50;97.10
7196;DHT22;3639;51.308;5.624;2023-02-15T12:50:33;12.30;97.70
7196;DHT22;3639;51.308;5.624;2023-02-15T12:53:30;12.40;97.50
7196;DHT22;3639;51.308;5.624;2023-02-15T12:55:58;12.50;97.60
7196;DHT22;3639;51.308;5.624;2023-02-15T12:58:26;12.60;96.60
7196;DHT22;3639;51.308;5.624;2023-02-15T13:01:12;12.70;96.20
7196;DHT22;3639;51.308;5.624;2023-02-15T13:06:20;12.50;97.20
7196;DHT22;3639;51.308;5.624;2023-02-15T13:08:51;12.40;97.50
7196;DHT22;3639;51.308;5.624;2023-02-15T13:11:25;12.40;97.30
7196;DHT22;3639;51.308;5.624;2023-02-15T13:14:03;12.50;97.30
7196;DHT22;3639;51.308;5.624;2023-02-15T13:16:39;12.60;97.10
7196;DHT22;3639;51.308;5.624;2023-02-15T13:21:43;12.60;97.30
7196;DHT22;3639;51.308;5.624;2023-02-15T13:26:47;12.50;97.90
7196;DHT22;3639;51.308;5.624;2023-02-15T13:29:21;12.40;97.50
7196;DHT22;3639;51.308;5.624;2023-02-15T13:31:48;12.40;97.80
7196;DHT22;3639;51.308;5.624;2023-02-15T13:34:24;12.40;97.70
7196;DHT22;3639;51.308;5.624;2023-02-15T13:39:42;12.60;97.80
7196;DHT22;3639;51.308;5.624;2023-02-15T13:47:52;12.90;97.70
7196;DHT22;3639;51.308;5.624;2023-02-15T13:50:38;12.90;97.30
7196;DHT22;3639;51.308;5.624;2023-02-15T13:58:25;13.30;96.20
7196;DHT22;3639;51.308;5.624;2023-02-15T14:01:11;13.30;96.10
7196;DHT22;3639;51.308;5.624;2023-02-15T14:03:56;13.30;95.80
7196;DHT22;3639;51.308;5.624;2023-02-15T14:06:47;13.30;96.00
7196;DHT22;3639;51.308;5.624;2023-02-15T14:15:35;13.20;96.30
7196;DHT22;3639;51.308;5.624;2023-02-15T14:26:21;13.20;96.50
7196;DHT22;3639;51.308;5.624;2023-02-15T14:28:56;13.10;96.50
7196;DHT22;3639;51.308;5.624;2023-02-15T14:31:37;13.10;96.40
7196;DHT22;3639;51.308;5.624;2023-02-15T14:34:03;13.10;96.50
7196;DHT22;3639;51.308;5.624;2023-02-15T14:36:30;13.00;96.40
7196;DHT22;3639;51.308;5.624;2023-02-15T14:41:57;12.90;96.80
7196;DHT22;3639;51.308;5.624;2023-02-15T14:44:42;12.80;97.30
7196;DHT22;3639;51.308;5.624;2023-02-15T14:47:19;12.80;97.40
7196;DHT22;3639;51.308;5.624;2023-02-15T14:49:48;12.70;97.50
7196;DHT22;3639;51.308;5.624;2023-02-15T14:52:13;12.70;97.80
7196;DHT22;3639;51.308;5.624;2023-02-15T15:04:39;12.80;97.50
7196;DHT22;3639;51.308;5.624;2023-02-15T15:18:05;12.60;97.20
7196;DHT22;3639;51.308;5.624;2023-02-15T15:20:44;12.60;97.30
7196;DHT22;3639;51.308;5.624;2023-02-15T15:39:44;12.10;97.90
7196;DHT22;3639;51.308;5.624;2023-02-15T15:48:32;11.90;98.10
7196;DHT22;3639;51.308;5.624;2023-02-15T15:50:41;11.80;98.60
7196;DHT22;3639;51.308;5.624;2023-02-15T15:53:20;11.60;98.90
7196;DHT22;3639;51.308;5.624;2023-02-15T15:55:47;11.60;98.90
7196;DHT22;3639;51.308;5.624;2023-02-15T15:58:17;11.50;99.20
7196;DHT22;3639;51.308;5.624;2023-02-15T16:00:59;11.40;99.50
7196;DHT22;3639;51.308;5.624;2023-02-15T16:03:28;11.30;99.60
7196;DHT22;3639;51.308;5.624;2023-02-15T16:05:55;11.20;99.80
7196;DHT22;3639;51.308;5.624;2023-02-15T16:08:34;11.20;99.90
7196;DHT22;3639;51.308;5.624;2023-02-15T16:11:13;11.00;99.90
7196;DHT22;3639;51.308;5.624;2023-02-15T16:13:41;10.90;99.90
7196;DHT22;3639;51.308;5.624;2023-02-15T16:16:08;10.90;99.90
7196;DHT22;3639;51.308;5.624;2023-02-15T16:18:37;10.80;99.90
7196;DHT22;3639;51.308;5.624;2023-02-15T16:21:20;10.70;99.90
7196;DHT22;3639;51.308;5.624;2023-02-15T16:26:22;10.50;99.90
7196;DHT22;3639;51.308;5.624;2023-02-15T16:28:53;10.50;99.90
7196;DHT22;3639;51.308;5.624;2023-02-15T16:31:20;10.40;99.90
7196;DHT22;3639;51.308;5.624;2023-02-15T16:33:48;10.40;99.90
7196;DHT22;3639;51.308;5.624;2023-02-15T16:36:27;10.30;99.90
7196;DHT22;3639;51.308;5.624;2023-02-15T16:41:24;10.10;99.90
7196;DHT22;3639;51.308;5.624;2023-02-15T16:43:53;10.00;99.90
7196;DHT22;3639;51.308;5.624;2023-02-15T16:46:27;10.00;99.90
7196;DHT22;3639;51.308;5.624;2023-02-15T16:48:59;9.90;99.90
7196;DHT22;3639;51.308;5.624;2023-02-15T16:51:29;9.80;99.90
7196;DHT22;3639;51.308;5.624;2023-02-15T16:53:57;9.70;99.90
7196;DHT22;3639;51.308;5.624;2023-02-15T16:56:27;9.60;99.90
7196;DHT22;3639;51.308;5.624;2023-02-15T16:58:56;9.50;99.90
7196;DHT22;3639;51.308;5.624;2023-02-15T17:01:24;9.50;99.90
7196;DHT22;3639;51.308;5.624;2023-02-15T17:04:13;9.50;99.90
7196;DHT22;3639;51.308;5.624;2023-02-15T17:06:39;9.40;99.90
7196;DHT22;3639;51.308;5.624;2023-02-15T17:09:13;9.30;99.90
7196;DHT22;3639;51.308;5.624;2023-02-15T17:11:44;9.20;99.90
7196;DHT22;3639;51.308;5.624;2023-02-15T17:14:11;9.20;99.90
7196;DHT22;3639;51.308;5.624;2023-02-15T17:19:49;9.00;99.90
7196;DHT22;3639;51.308;5.624;2023-02-15T17:22:23;8.90;99.90
7196;DHT22;3639;51.308;5.624;2023-02-15T17:24:58;8.90;99.90
7196;DHT22;3639;51.308;5.624;2023-02-15T17:27:25;8.80;99.90
7196;DHT22;3639;51.308;5.624;2023-02-15T17:30:03;8.80;99.90
7196;DHT22;3639;51.308;5.624;2023-02-15T17:32:38;8.70;99.90
7196;DHT22;3639;51.308;5.624;2023-02-15T17:35:20;8.70;99.90
7196;DHT22;3639;51.308;5.624;2023-02-15T17:37:48;8.60;99.90
7196;DHT22;3639;51.308;5.624;2023-02-15T17:40:34;8.50;99.90
7196;DHT22;3639;51.308;5.624;2023-02-15T17:43:01;8.50;99.90
7196;DHT22;3639;51.308;5.624;2023-02-15T17:45:36;8.40;99.90
7196;DHT22;3639;51.308;5.624;2023-02-15T17:48:04;8.40;99.90
7196;DHT22;3639;51.308;5.624;2023-02-15T17:50:31;8.40;99.90
7196;DHT22;3639;51.308;5.624;2023-02-15T17:52:58;8.30;99.90
7196;DHT22;3639;51.308;5.624;2023-02-15T17:55:26;8.30;99.90
7196;DHT22;3639;51.308;5.624;2023-02-15T17:58:09;8.20;99.90
7196;DHT22;3639;51.308;5.624;2023-02-15T18:00:43;8.10;99.90
7196;DHT22;3639;51.308;5.624;2023-02-15T18:03:37;8.00;99.90
7196;DHT22;3639;51.308;5.624;2023-02-15T18:06:22;8.00;99.90
7196;DHT22;3639;51.308;5.624;2023-02-15T18:09:10;7.90;99.90
7196;DHT22;3639;51.308;5.624;2023-02-15T18:11:54;7.90;99.90
7196;DHT22;3639;51.308;5.624;2023-02-15T18:14:20;7.90;99.90
7196;DHT22;3639;51.308;5.624;2023-02-15T18:16:45;7.80;99.90
7196;DHT22;3639;51.308;5.624;2023-02-15T18:19:25;7.80;99.90
7196;DHT22;3639;51.308;5.624;2023-02-15T18:21:52;7.70;99.90
7196;DHT22;3639;51.308;5.624;2023-02-15T18:24:23;7.60;99.90
7196;DHT22;3639;51.308;5.624;2023-02-15T18:26:49;7.70;99.90
7196;DHT22;3639;51.308;5.624;2023-02-15T18:29:15;7.70;99.90
7196;DHT22;3639;51.308;5.624;2023-02-15T18:31:43;7.60;99.90
7196;DHT22;3639;51.308;5.624;2023-02-15T18:34:29;7.60;99.90
7196;DHT22;3639;51.308;5.624;2023-02-15T18:36:56;7.50;99.90
7196;DHT22;3639;51.308;5.624;2023-02-15T18:39:37;7.40;99.90
7196;DHT22;3639;51.308;5.624;2023-02-15T18:42:06;7.30;99.90
7196;DHT22;3639;51.308;5.624;2023-02-15T18:44:31;7.30;99.90
7196;DHT22;3639;51.308;5.624;2023-02-15T18:46:57;7.20;99.90
7196;DHT22;3639;51.308;5.624;2023-02-15T18:49:23;7.20;99.90
7196;DHT22;3639;51.308;5.624;2023-02-15T18:51:49;7.20;99.90
7196;DHT22;3639;51.308;5.624;2023-02-15T18:54:20;7.20;99.90
7196;DHT22;3639;51.308;5.624;2023-02-15T18:56:59;7.20;99.90
7196;DHT22;3639;51.308;5.624;2023-02-15T18:59:27;7.20;99.90
7196;DHT22;3639;51.308;5.624;2023-02-15T19:01:53;7.20;99.90
7196;DHT22;3639;51.308;5.624;2023-02-15T19:04:19;7.20;99.90
7196;DHT22;3639;51.308;5.624;2023-02-15T19:06:46;7.20;99.90
7196;DHT22;3639;51.308;5.624;2023-02-15T19:09:21;7.20;99.90
7196;DHT22;3639;51.308;5.624;2023-02-15T19:11:50;7.20;99.90
7196;DHT22;3639;51.308;5.624;2023-02-15T19:14:36;7.10;99.90
7196;DHT22;3639;51.308;5.624;2023-02-15T19:17:02;7.10;99.90
7196;DHT22;3639;51.308;5.624;2023-02-15T19:19:29;7.00;99.90
7196;DHT22;3639;51.308;5.624;2023-02-15T19:21:55;7.00;99.90
7196;DHT22;3639;51.308;5.624;2023-02-15T19:24:23;6.90;99.90
7196;DHT22;3639;51.308;5.624;2023-02-15T19:26:50;6.80;99.90
7196;DHT22;3639;51.308;5.624;2023-02-15T19:29:22;6.80;99.90
7196;DHT22;3639;51.308;5.624;2023-02-15T19:31:49;6.80;99.90
7196;DHT22;3639;51.308;5.624;2023-02-15T19:34:16;6.70;99.90
7196;DHT22;3639;51.308;5.624;2023-02-15T19:36:43;6.70;99.90
7196;DHT22;3639;51.308;5.624;2023-02-15T19:39:37;6.70;99.90
7196;DHT22;3639;51.308;5.624;2023-02-15T19:42:03;6.70;99.90
7196;DHT22;3639;51.308;5.624;2023-02-15T19:44:30;6.70;99.90
7196;DHT22;3639;51.308;5.624;2023-02-15T19:46:56;6.60;99.90